sensor_id;sensor_type;location;lat;lon;timestamp;temperature;humidity
22081;DHT22;11207;59.512;18.050;2022-11-18T00:01:20;0.60;99.90
22081;DHT22;11207;59.512;18.050;2022-11-18T00:03:46;0.60;99.90
22081;DHT22;11207;59.512;18.050;2022-11-18T00:06:14;0.70;99.90
22081;DHT22;11207;59.512;18.050;2022-11-18T00:08:40;0.70;99.90
22081;DHT22;11207;59.512;18.050;2022-11-18T00:11:11;0.70;99.90
22081;DHT22;11207;59.512;18.050;2022-11-18T00:13:37;0.70;99.90
22081;DHT22;11207;59.512;18.050;2022-11-18T00:16:22;0.60;99.90
22081;DHT22;11207;59.512;18.050;2022-11-18T00:18:48;0.60;99.90
22081;DHT22;11207;59.512;18.050;2022-11-18T00:21:15;0.60;99.90
22081;DHT22;11207;59.512;18.050;2022-11-18T00:23:41;0.50;99.90
22081;DHT22;11207;59.512;18.050;2022-11-18T00:26:12;0.60;99.90
22081;DHT22;11207;59.512;18.050;2022-11-18T00:28:39;0.60;99.90
22081;DHT22;11207;59.512;18.050;2022-11-18T00:31:06;0.60;99.90
22081;DHT22;11207;59.512;18.050;2022-11-18T00:33:33;0.60;99.90
22081;DHT22;11207;59.512;18.050;2022-11-18T00:35:58;0.60;99.90
22081;DHT22;11207;59.512;18.050;2022-11-18T00:38:25;0.70;99.90
22081;DHT22;11207;59.512;18.050;2022-11-18T00:41:04;0.70;99.90
22081;DHT22;11207;59.512;18.050;2022-11-18T00:43:30;0.70;99.90
22081;DHT22;11207;59.512;18.050;2022-11-18T00:45:56;0.80;99.90
22081;DHT22;11207;59.512;18.050;2022-11-18T00:48:22;0.80;99.90
22081;DHT22;11207;59.512;18.050;2022-11-18T00:50:49;0.90;99.90
22081;DHT22;11207;59.512;18.050;2022-11-18T00:53:16;0.90;99.90
22081;DHT22;11207;59.512;18.050;2022-11-18T00:55:42;0.90;99.90
22081;DHT22;11207;59.512;18.050;2022-11-18T00:58:11;0.90;99.90
22081;DHT22;11207;59.512;18.050;2022-11-18T01:00:48;1.00;99.90
22081;DHT22;11207;59.512;18.050;2022-11-18T01:03:14;1.00;99.90
22081;DHT22;11207;59.512;18.050;2022-11-18T01:05:40;1.00;99.90
22081;DHT22;11207;59.512;18.050;2022-11-18T01:08:07;1.00;99.90
22081;DHT22;11207;59.512;18.050;2022-11-18T01:10:34;1.00;99.90
22081;DHT22;11207;59.512;18.050;2022-11-18T01:13:01;0.90;99.90
22081;DHT22;11207;59.512;18.050;2022-11-18T01:15:53;1.00;99.90
22081;DHT22;11207;59.512;18.050;2022-11-18T01:18:24;1.10;99.90
22081;DHT22;11207;59.512;18.050;2022-11-18T01:20:51;1.10;99.90
22081;DHT22;11207;59.512;18.050;2022-11-18T01:23:17;1.10;99.90
22081;DHT22;11207;59.512;18.050;2022-11-18T01:25:44;1.20;99.90
22081;DHT22;11207;59.512;18.050;2022-11-18T01:28:11;1.10;99.90
22081;DHT22;11207;59.512;18.050;2022-11-18T01:30:38;1.10;99.90
22081;DHT22;11207;59.512;18.050;2022-11-18T01:33:04;1.10;99.90
22081;DHT22;11207;59.512;18.050;2022-11-18T01:35:35;1.10;99.90
22081;DHT22;11207;59.512;18.050;2022-11-18T01:38:01;1.10;99.90
22081;DHT22;11207;59.512;18.050;2022-11-18T01:40:26;1.20;99.90
22081;DHT22;11207;59.512;18.050;2022-11-18T01:42:53;1.10;99.90
22081;DHT22;11207;59.512;18.050;2022-11-18T01:50:34;1.20;99.90
22081;DHT22;11207;59.512;18.050;2022-11-18T01:53:08;1.20;99.90
22081;DHT22;11207;59.512;18.050;2022-11-18T01:55:36;1.20;99.90
22081;DHT22;11207;59.512;18.050;2022-11-18T01:58:17;1.20;99.90
22081;DHT22;11207;59.512;18.050;2022-11-18T02:00:44;1.30;99.90
22081;DHT22;11207;59.512;18.050;2022-11-18T02:03:11;1.30;99.90
22081;DHT22;11207;59.512;18.050;2022-11-18T02:05:37;1.30;99.90
22081;DHT22;11207;59.512;18.050;2022-11-18T02:08:05;1.30;99.90
22081;DHT22;11207;59.512;18.050;2022-11-18T02:10:31;1.30;99.90
22081;DHT22;11207;59.512;18.050;2022-11-18T02:12:58;1.30;99.90
22081;DHT22;11207;59.512;18.050;2022-11-18T02:20:46;1.20;99.90
22081;DHT22;11207;59.512;18.050;2022-11-18T02:28:59;1.10;99.90
22081;DHT22;11207;59.512;18.050;2022-11-18T02:31:34;1.10;99.90
22081;DHT22;11207;59.512;18.050;2022-11-18T02:34:47;1.10;99.90
22081;DHT22;11207;59.512;18.050;2022-11-18T02:37:15;1.10;99.90
22081;DHT22;11207;59.512;18.050;2022-11-18T02:42:35;1.00;99.90
22081;DHT22;11207;59.512;18.050;2022-11-18T02:45:05;1.00;99.90
22081;DHT22;11207;59.512;18.050;2022-11-18T02:47:35;1.00;99.90
22081;DHT22;11207;59.512;18.050;2022-11-18T02:50:05;0.90;99.90
22081;DHT22;11207;59.512;18.050;2022-11-18T02:52:34;0.90;99.90
22081;DHT22;11207;59.512;18.050;2022-11-18T02:55:01;0.80;99.90
22081;DHT22;11207;59.512;18.050;2022-11-18T02:57:29;0.90;99.90
22081;DHT22;11207;59.512;18.050;2022-11-18T02:59:55;0.80;99.90
22081;DHT22;11207;59.512;18.050;2022-11-18T03:02:21;0.90;99.90
22081;DHT22;11207;59.512;18.050;2022-11-18T03:04:50;0.80;99.90
22081;DHT22;11207;59.512;18.050;2022-11-18T03:07:33;0.80;99.90
22081;DHT22;11207;59.512;18.050;2022-11-18T03:10:00;0.80;99.90
22081;DHT22;11207;59.512;18.050;2022-11-18T03:12:42;0.90;99.90
22081;DHT22;11207;59.512;18.050;2022-11-18T03:20:28;0.80;99.90
22081;DHT22;11207;59.512;18.050;2022-11-18T03:26:00;0.80;99.90
22081;DHT22;11207;59.512;18.050;2022-11-18T03:28:44;0.80;99.90
22081;DHT22;11207;59.512;18.050;2022-11-18T03:33:45;0.80;99.90
22081;DHT22;11207;59.512;18.050;2022-11-18T03:36:13;0.80;99.90
22081;DHT22;11207;59.512;18.050;2022-11-18T03:38:45;0.80;99.90
22081;DHT22;11207;59.512;18.050;2022-11-18T03:41:13;0.80;99.90
22081;DHT22;11207;59.512;18.050;2022-11-18T03:43:48;0.90;99.90
22081;DHT22;11207;59.512;18.050;2022-11-18T03:46:19;0.80;99.90
22081;DHT22;11207;59.512;18.050;2022-11-18T03:48:54;0.80;99.90
22081;DHT22;11207;59.512;18.050;2022-11-18T03:51:34;0.80;99.90
22081;DHT22;11207;59.512;18.050;2022-11-18T03:54:21;0.80;99.90
22081;DHT22;11207;59.512;18.050;2022-11-18T03:56:57;0.90;99.90
22081;DHT22;11207;59.512;18.050;2022-11-18T03:59:37;0.90;99.90
22081;DHT22;11207;59.512;18.050;2022-11-18T04:02:10;0.90;99.90
22081;DHT22;11207;59.512;18.050;2022-11-18T04:04:38;0.90;99.90
22081;DHT22;11207;59.512;18.050;2022-11-18T04:09:53;1.00;99.90
22081;DHT22;11207;59.512;18.050;2022-11-18T04:12:21;1.00;99.90
22081;DHT22;11207;59.512;18.050;2022-11-18T04:14:47;1.00;99.90
22081;DHT22;11207;59.512;18.050;2022-11-18T04:17:19;0.90;99.90
22081;DHT22;11207;59.512;18.050;2022-11-18T04:19:45;0.80;99.90
22081;DHT22;11207;59.512;18.050;2022-11-18T04:22:11;0.80;99.90
22081;DHT22;11207;59.512;18.050;2022-11-18T04:24:37;0.80;99.90
22081;DHT22;11207;59.512;18.050;2022-11-18T04:27:03;0.90;99.90
22081;DHT22;11207;59.512;18.050;2022-11-18T04:29:30;0.80;99.90
22081;DHT22;11207;59.512;18.050;2022-11-18T04:31:56;0.70;99.90
22081;DHT22;11207;59.512;18.050;2022-11-18T04:34:22;0.70;99.90
22081;DHT22;11207;59.512;18.050;2022-11-18T04:36:48;0.70;99.90
22081;DHT22;11207;59.512;18.050;2022-11-18T04:39:13;0.70;99.90
22081;DHT22;11207;59.512;18.050;2022-11-18T04:41:39;0.70;99.90
22081;DHT22;11207;59.512;18.050;2022-11-18T04:44:31;0.60;99.90
22081;DHT22;11207;59.512;18.050;2022-11-18T04:47:03;0.60;99.90
22081;DHT22;11207;59.512;18.050;2022-11-18T04:49:29;0.60;99.90
22081;DHT22;11207;59.512;18.050;2022-11-18T04:51:55;0.60;99.90
22081;DHT22;11207;59.512;18.050;2022-11-18T04:54:21;0.60;99.90
22081;DHT22;11207;59.512;18.050;2022-11-18T04:56:48;0.60;99.90
22081;DHT22;11207;59.512;18.050;2022-11-18T04:59:16;0.60;99.90
22081;DHT22;11207;59.512;18.050;2022-11-18T05:01:42;0.60;99.90
22081;DHT22;11207;59.512;18.050;2022-11-18T05:04:12;0.60;99.90
22081;DHT22;11207;59.512;18.050;2022-11-18T05:06:38;0.50;99.90
22081;DHT22;11207;59.512;18.050;2022-11-18T05:09:04;0.50;99.90
22081;DHT22;11207;59.512;18.050;2022-11-18T05:11:31;0.40;99.90
22081;DHT22;11207;59.512;18.050;2022-11-18T05:14:15;0.40;99.90
22081;DHT22;11207;59.512;18.050;2022-11-18T05:16:41;0.40;99.90
22081;DHT22;11207;59.512;18.050;2022-11-18T05:19:07;0.40;99.90
22081;DHT22;11207;59.512;18.050;2022-11-18T05:21:33;0.30;99.90
22081;DHT22;11207;59.512;18.050;2022-11-18T05:24:00;0.30;99.90
22081;DHT22;11207;59.512;18.050;2022-11-18T05:26:26;0.30;99.90
22081;DHT22;11207;59.512;18.050;2022-11-18T05:28:51;0.30;99.90
22081;DHT22;11207;59.512;18.050;2022-11-18T05:31:18;0.20;99.90
22081;DHT22;11207;59.512;18.050;2022-11-18T05:33:43;0.30;99.90
22081;DHT22;11207;59.512;18.050;2022-11-18T05:36:15;0.20;99.90
22081;DHT22;11207;59.512;18.050;2022-11-18T05:38:41;0.20;99.90
22081;DHT22;11207;59.512;18.050;2022-11-18T05:41:08;0.10;99.90
22081;DHT22;11207;59.512;18.050;2022-11-18T05:43:34;0.10;99.90
22081;DHT22;11207;59.512;18.050;2022-11-18T05:46:01;0.00;99.90
22081;DHT22;11207;59.512;18.050;2022-11-18T05:48:27;0.00;99.90
22081;DHT22;11207;59.512;18.050;2022-11-18T05:50:54;0.00;99.90
22081;DHT22;11207;59.512;18.050;2022-11-18T05:53:22;0.00;99.90
22081;DHT22;11207;59.512;18.050;2022-11-18T05:56:21;-0.10;99.90
22081;DHT22;11207;59.512;18.050;2022-11-18T05:58:40;0.00;99.90
22081;DHT22;11207;59.512;18.050;2022-11-18T06:01:06;0.00;99.90
22081;DHT22;11207;59.512;18.050;2022-11-18T06:03:37;-0.10;99.90
22081;DHT22;11207;59.512;18.050;2022-11-18T06:06:05;-0.10;99.90
22081;DHT22;11207;59.512;18.050;2022-11-18T06:08:42;0.00;99.90
22081;DHT22;11207;59.512;18.050;2022-11-18T06:11:11;-0.10;99.90
22081;DHT22;11207;59.512;18.050;2022-11-18T06:13:44;0.00;99.90
22081;DHT22;11207;59.512;18.050;2022-11-18T06:16:16;-0.20;99.90
22081;DHT22;11207;59.512;18.050;2022-11-18T06:18:42;-0.20;99.90
22081;DHT22;11207;59.512;18.050;2022-11-18T06:21:07;-0.10;99.90
22081;DHT22;11207;59.512;18.050;2022-11-18T06:23:35;-0.10;99.90
22081;DHT22;11207;59.512;18.050;2022-11-18T06:26:01;0.00;99.90
22081;DHT22;11207;59.512;18.050;2022-11-18T06:28:27;0.10;99.90
22081;DHT22;11207;59.512;18.050;2022-11-18T06:30:54;0.10;99.90
22081;DHT22;11207;59.512;18.050;2022-11-18T06:33:19;0.10;99.90
22081;DHT22;11207;59.512;18.050;2022-11-18T06:35:45;0.20;99.90
22081;DHT22;11207;59.512;18.050;2022-11-18T06:38:11;0.20;99.90
22081;DHT22;11207;59.512;18.050;2022-11-18T06:40:36;0.20;99.90
22081;DHT22;11207;59.512;18.050;2022-11-18T06:43:06;0.10;99.90
22081;DHT22;11207;59.512;18.050;2022-11-18T06:45:51;0.10;99.90
22081;DHT22;11207;59.512;18.050;2022-11-18T06:48:35;0.00;99.90
22081;DHT22;11207;59.512;18.050;2022-11-18T06:51:04;0.00;99.90
22081;DHT22;11207;59.512;18.050;2022-11-18T06:53:29;0.00;99.90
22081;DHT22;11207;59.512;18.050;2022-11-18T06:55:55;0.00;99.90
22081;DHT22;11207;59.512;18.050;2022-11-18T06:58:20;-0.10;99.90
22081;DHT22;11207;59.512;18.050;2022-11-18T07:00:46;-0.10;99.90
22081;DHT22;11207;59.512;18.050;2022-11-18T07:03:12;-0.20;99.90
22081;DHT22;11207;59.512;18.050;2022-11-18T07:05:37;-0.20;99.90
22081;DHT22;11207;59.512;18.050;2022-11-18T07:08:03;-0.20;99.90
22081;DHT22;11207;59.512;18.050;2022-11-18T07:10:29;-0.20;99.90
22081;DHT22;11207;59.512;18.050;2022-11-18T07:12:54;-0.20;99.90
22081;DHT22;11207;59.512;18.050;2022-11-18T07:15:20;-0.20;99.90
22081;DHT22;11207;59.512;18.050;2022-11-18T07:17:46;-0.30;99.90
22081;DHT22;11207;59.512;18.050;2022-11-18T07:20:11;-0.30;99.90
22081;DHT22;11207;59.512;18.050;2022-11-18T07:22:37;-0.30;99.90
22081;DHT22;11207;59.512;18.050;2022-11-18T07:25:03;-0.20;99.90
22081;DHT22;11207;59.512;18.050;2022-11-18T07:27:28;-0.30;99.90
22081;DHT22;11207;59.512;18.050;2022-11-18T07:29:54;-0.40;99.90
22081;DHT22;11207;59.512;18.050;2022-11-18T07:32:20;-0.30;99.90
22081;DHT22;11207;59.512;18.050;2022-11-18T07:34:45;-0.20;99.90
22081;DHT22;11207;59.512;18.050;2022-11-18T07:37:11;-0.30;99.90
22081;DHT22;11207;59.512;18.050;2022-11-18T07:39:36;-0.20;99.90
22081;DHT22;11207;59.512;18.050;2022-11-18T07:42:02;-0.20;99.90
22081;DHT22;11207;59.512;18.050;2022-11-18T07:44:28;-0.10;99.90
22081;DHT22;11207;59.512;18.050;2022-11-18T07:46:53;-0.10;99.90
22081;DHT22;11207;59.512;18.050;2022-11-18T07:49:19;-0.20;99.90
22081;DHT22;11207;59.512;18.050;2022-11-18T07:51:44;-0.20;99.90
22081;DHT22;11207;59.512;18.050;2022-11-18T07:54:12;-0.20;99.90
22081;DHT22;11207;59.512;18.050;2022-11-18T07:56:38;-0.20;99.90
22081;DHT22;11207;59.512;18.050;2022-11-18T07:59:05;-0.20;99.90
22081;DHT22;11207;59.512;18.050;2022-11-18T08:01:30;-0.20;99.90
22081;DHT22;11207;59.512;18.050;2022-11-18T08:04:17;-0.10;99.90
22081;DHT22;11207;59.512;18.050;2022-11-18T08:06:43;0.00;99.90
22081;DHT22;11207;59.512;18.050;2022-11-18T08:09:09;0.20;99.90
22081;DHT22;11207;59.512;18.050;2022-11-18T08:11:35;0.30;99.90
22081;DHT22;11207;59.512;18.050;2022-11-18T08:14:01;0.40;99.90
22081;DHT22;11207;59.512;18.050;2022-11-18T08:16:27;0.40;99.90
22081;DHT22;11207;59.512;18.050;2022-11-18T08:18:53;0.50;99.90
22081;DHT22;11207;59.512;18.050;2022-11-18T08:21:20;0.70;99.90
22081;DHT22;11207;59.512;18.050;2022-11-18T08:23:50;0.60;99.90
22081;DHT22;11207;59.512;18.050;2022-11-18T08:26:16;0.70;99.90
22081;DHT22;11207;59.512;18.050;2022-11-18T08:28:42;0.80;99.90
22081;DHT22;11207;59.512;18.050;2022-11-18T08:31:17;0.80;99.90
22081;DHT22;11207;59.512;18.050;2022-11-18T08:33:43;0.80;99.90
22081;DHT22;11207;59.512;18.050;2022-11-18T08:36:17;0.80;99.90
22081;DHT22;11207;59.512;18.050;2022-11-18T08:38:44;0.90;99.90
22081;DHT22;11207;59.512;18.050;2022-11-18T08:41:12;0.90;99.90
22081;DHT22;11207;59.512;18.050;2022-11-18T08:43:38;1.10;99.90
22081;DHT22;11207;59.512;18.050;2022-11-18T08:46:04;1.00;99.90
22081;DHT22;11207;59.512;18.050;2022-11-18T08:48:29;1.00;99.90
22081;DHT22;11207;59.512;18.050;2022-11-18T08:50:57;1.10;99.90
22081;DHT22;11207;59.512;18.050;2022-11-18T08:53:23;1.20;99.90
22081;DHT22;11207;59.512;18.050;2022-11-18T08:55:54;1.20;99.90
22081;DHT22;11207;59.512;18.050;2022-11-18T08:58:20;1.20;99.90
22081;DHT22;11207;59.512;18.050;2022-11-18T09:00:46;1.30;99.90
22081;DHT22;11207;59.512;18.050;2022-11-18T09:03:11;1.30;99.90
22081;DHT22;11207;59.512;18.050;2022-11-18T09:05:37;1.30;99.90
22081;DHT22;11207;59.512;18.050;2022-11-18T09:08:03;1.40;99.90
22081;DHT22;11207;59.512;18.050;2022-11-18T09:10:29;1.40;99.90
22081;DHT22;11207;59.512;18.050;2022-11-18T09:12:55;1.50;99.90
22081;DHT22;11207;59.512;18.050;2022-11-18T09:15:21;1.60;99.90
22081;DHT22;11207;59.512;18.050;2022-11-18T09:17:48;1.50;99.90
22081;DHT22;11207;59.512;18.050;2022-11-18T09:20:16;1.70;99.90
22081;DHT22;11207;59.512;18.050;2022-11-18T09:22:45;1.70;99.90
22081;DHT22;11207;59.512;18.050;2022-11-18T09:25:12;1.70;99.90
22081;DHT22;11207;59.512;18.050;2022-11-18T09:27:38;1.70;99.90
22081;DHT22;11207;59.512;18.050;2022-11-18T09:30:04;1.80;99.90
22081;DHT22;11207;59.512;18.050;2022-11-18T09:32:31;1.80;99.90
22081;DHT22;11207;59.512;18.050;2022-11-18T09:34:57;1.90;99.90
22081;DHT22;11207;59.512;18.050;2022-11-18T09:37:23;1.90;99.90
22081;DHT22;11207;59.512;18.050;2022-11-18T09:39:48;2.00;99.90
22081;DHT22;11207;59.512;18.050;2022-11-18T09:42:38;2.00;99.90
22081;DHT22;11207;59.512;18.050;2022-11-18T09:45:24;2.10;99.90
22081;DHT22;11207;59.512;18.050;2022-11-18T09:47:57;2.10;99.90
22081;DHT22;11207;59.512;18.050;2022-11-18T09:50:25;2.10;99.90
22081;DHT22;11207;59.512;18.050;2022-11-18T09:53:23;2.10;99.90
22081;DHT22;11207;59.512;18.050;2022-11-18T09:55:48;2.20;99.90
22081;DHT22;11207;59.512;18.050;2022-11-18T09:58:20;2.20;99.90
22081;DHT22;11207;59.512;18.050;2022-11-18T10:00:46;2.20;99.90
22081;DHT22;11207;59.512;18.050;2022-11-18T10:03:25;2.20;99.90
22081;DHT22;11207;59.512;18.050;2022-11-18T10:11:17;2.40;99.90
22081;DHT22;11207;59.512;18.050;2022-11-18T10:22:28;2.40;99.90
22081;DHT22;11207;59.512;18.050;2022-11-18T10:24:56;2.50;99.90
22081;DHT22;11207;59.512;18.050;2022-11-18T10:27:26;2.50;99.90
22081;DHT22;11207;59.512;18.050;2022-11-18T10:29:58;2.40;99.90
22081;DHT22;11207;59.512;18.050;2022-11-18T10:32:25;2.30;99.90
22081;DHT22;11207;59.512;18.050;2022-11-18T10:34:56;2.30;99.90
22081;DHT22;11207;59.512;18.050;2022-11-18T10:37:29;2.30;99.90
22081;DHT22;11207;59.512;18.050;2022-11-18T10:40:00;2.30;99.90
22081;DHT22;11207;59.512;18.050;2022-11-18T10:42:36;2.20;99.90
22081;DHT22;11207;59.512;18.050;2022-11-18T10:48:19;2.10;99.90
22081;DHT22;11207;59.512;18.050;2022-11-18T10:53:33;2.00;99.90
22081;DHT22;11207;59.512;18.050;2022-11-18T10:56:08;2.00;99.90
22081;DHT22;11207;59.512;18.050;2022-11-18T10:58:40;1.90;99.90
22081;DHT22;11207;59.512;18.050;2022-11-18T11:01:23;2.00;99.90
22081;DHT22;11207;59.512;18.050;2022-11-18T11:04:18;2.00;99.90
22081;DHT22;11207;59.512;18.050;2022-11-18T11:06:46;1.90;99.90
22081;DHT22;11207;59.512;18.050;2022-11-18T11:11:54;1.90;99.90
22081;DHT22;11207;59.512;18.050;2022-11-18T11:15:01;2.10;99.90
22081;DHT22;11207;59.512;18.050;2022-11-18T11:17:34;2.10;99.90
22081;DHT22;11207;59.512;18.050;2022-11-18T11:20:06;2.10;99.90
22081;DHT22;11207;59.512;18.050;2022-11-18T11:22:34;2.20;99.90
22081;DHT22;11207;59.512;18.050;2022-11-18T11:25:00;2.30;99.90
22081;DHT22;11207;59.512;18.050;2022-11-18T11:27:41;2.30;99.90
22081;DHT22;11207;59.512;18.050;2022-11-18T11:35:30;2.50;99.90
22081;DHT22;11207;59.512;18.050;2022-11-18T11:38:25;2.60;99.90
22081;DHT22;11207;59.512;18.050;2022-11-18T11:41:10;2.60;99.90
22081;DHT22;11207;59.512;18.050;2022-11-18T11:43:54;2.70;99.90
22081;DHT22;11207;59.512;18.050;2022-11-18T11:52:47;2.80;99.90
22081;DHT22;11207;59.512;18.050;2022-11-18T11:58:22;2.90;99.90
22081;DHT22;11207;59.512;18.050;2022-11-18T12:06:37;2.90;99.90
22081;DHT22;11207;59.512;18.050;2022-11-18T12:09:20;2.80;99.90
22081;DHT22;11207;59.512;18.050;2022-11-18T12:11:54;2.90;99.90
22081;DHT22;11207;59.512;18.050;2022-11-18T12:17:17;2.70;99.90
22081;DHT22;11207;59.512;18.050;2022-11-18T12:19:45;2.70;99.90
22081;DHT22;11207;59.512;18.050;2022-11-18T12:22:11;2.70;99.90
22081;DHT22;11207;59.512;18.050;2022-11-18T12:24:42;2.70;99.90
22081;DHT22;11207;59.512;18.050;2022-11-18T12:29:51;2.60;99.90
22081;DHT22;11207;59.512;18.050;2022-11-18T12:42:47;2.50;99.90
22081;DHT22;11207;59.512;18.050;2022-11-18T12:48:29;2.40;99.90
22081;DHT22;11207;59.512;18.050;2022-11-18T12:50:57;2.40;99.90
22081;DHT22;11207;59.512;18.050;2022-11-18T12:53:36;2.40;99.90
22081;DHT22;11207;59.512;18.050;2022-11-18T12:58:37;2.30;99.90
22081;DHT22;11207;59.512;18.050;2022-11-18T13:01:09;2.30;99.90
22081;DHT22;11207;59.512;18.050;2022-11-18T13:03:35;2.30;99.90
22081;DHT22;11207;59.512;18.050;2022-11-18T13:06:05;2.30;99.90
22081;DHT22;11207;59.512;18.050;2022-11-18T13:08:33;2.30;99.90
22081;DHT22;11207;59.512;18.050;2022-11-18T13:11:14;2.30;99.90
22081;DHT22;11207;59.512;18.050;2022-11-18T13:14:00;2.20;99.90
22081;DHT22;11207;59.512;18.050;2022-11-18T13:16:45;2.20;99.90
22081;DHT22;11207;59.512;18.050;2022-11-18T13:19:30;2.10;99.90
22081;DHT22;11207;59.512;18.050;2022-11-18T13:21:58;2.10;99.90
22081;DHT22;11207;59.512;18.050;2022-11-18T13:24:48;2.10;99.90
22081;DHT22;11207;59.512;18.050;2022-11-18T13:27:22;2.10;99.90
22081;DHT22;11207;59.512;18.050;2022-11-18T13:30:04;2.10;99.90
22081;DHT22;11207;59.512;18.050;2022-11-18T13:32:31;2.00;99.90
22081;DHT22;11207;59.512;18.050;2022-11-18T13:35:20;1.90;99.90
22081;DHT22;11207;59.512;18.050;2022-11-18T13:37:54;1.90;99.90
22081;DHT22;11207;59.512;18.050;2022-11-18T13:42:50;1.90;99.90
22081;DHT22;11207;59.512;18.050;2022-11-18T13:45:16;1.90;99.90
22081;DHT22;11207;59.512;18.050;2022-11-18T13:48:03;1.90;99.90
22081;DHT22;11207;59.512;18.050;2022-11-18T13:55:57;1.80;99.90
22081;DHT22;11207;59.512;18.050;2022-11-18T14:01:03;1.90;99.90
22081;DHT22;11207;59.512;18.050;2022-11-18T14:06:36;1.90;99.90
22081;DHT22;11207;59.512;18.050;2022-11-18T14:09:14;1.80;99.90
22081;DHT22;11207;59.512;18.050;2022-11-18T14:11:43;1.80;99.90
22081;DHT22;11207;59.512;18.050;2022-11-18T14:14:10;1.80;99.90
22081;DHT22;11207;59.512;18.050;2022-11-18T14:16:41;1.80;99.90
22081;DHT22;11207;59.512;18.050;2022-11-18T14:19:25;1.80;99.90
22081;DHT22;11207;59.512;18.050;2022-11-18T14:21:52;1.80;99.90
22081;DHT22;11207;59.512;18.050;2022-11-18T14:24:25;1.70;99.90
22081;DHT22;11207;59.512;18.050;2022-11-18T14:26:51;1.70;99.90
22081;DHT22;11207;59.512;18.050;2022-11-18T14:29:18;1.70;99.90
22081;DHT22;11207;59.512;18.050;2022-11-18T14:34:35;1.70;99.90
22081;DHT22;11207;59.512;18.050;2022-11-18T14:37:13;1.70;99.90
22081;DHT22;11207;59.512;18.050;2022-11-18T14:39:39;1.70;99.90
22081;DHT22;11207;59.512;18.050;2022-11-18T14:42:10;1.70;99.90
22081;DHT22;11207;59.512;18.050;2022-11-18T14:44:37;1.70;99.90
22081;DHT22;11207;59.512;18.050;2022-11-18T14:47:08;1.70;99.90
22081;DHT22;11207;59.512;18.050;2022-11-18T14:49:37;1.70;99.90
22081;DHT22;11207;59.512;18.050;2022-11-18T14:52:02;1.70;99.90
22081;DHT22;11207;59.512;18.050;2022-11-18T14:54:29;1.80;99.90
22081;DHT22;11207;59.512;18.050;2022-11-18T14:56:57;1.70;99.90
22081;DHT22;11207;59.512;18.050;2022-11-18T14:59:24;1.70;99.90
22081;DHT22;11207;59.512;18.050;2022-11-18T15:01:50;1.70;99.90
22081;DHT22;11207;59.512;18.050;2022-11-18T15:04:16;1.70;99.90
22081;DHT22;11207;59.512;18.050;2022-11-18T15:06:42;1.70;99.90
22081;DHT22;11207;59.512;18.050;2022-11-18T15:09:11;1.70;99.90
22081;DHT22;11207;59.512;18.050;2022-11-18T15:11:37;1.70;99.90
22081;DHT22;11207;59.512;18.050;2022-11-18T15:14:03;1.70;99.90
22081;DHT22;11207;59.512;18.050;2022-11-18T15:16:31;1.60;99.90
22081;DHT22;11207;59.512;18.050;2022-11-18T15:18:59;1.70;99.90
22081;DHT22;11207;59.512;18.050;2022-11-18T15:21:26;1.70;99.90
22081;DHT22;11207;59.512;18.050;2022-11-18T15:23:51;1.60;99.90
22081;DHT22;11207;59.512;18.050;2022-11-18T15:26:26;1.60;99.90
22081;DHT22;11207;59.512;18.050;2022-11-18T15:28:54;1.60;99.90
22081;DHT22;11207;59.512;18.050;2022-11-18T15:31:21;1.60;99.90
22081;DHT22;11207;59.512;18.050;2022-11-18T15:33:47;1.60;99.90
22081;DHT22;11207;59.512;18.050;2022-11-18T15:36:19;1.60;99.90
22081;DHT22;11207;59.512;18.050;2022-11-18T15:38:46;1.60;99.90
22081;DHT22;11207;59.512;18.050;2022-11-18T15:41:26;1.60;99.90
22081;DHT22;11207;59.512;18.050;2022-11-18T15:43:53;1.60;99.90
22081;DHT22;11207;59.512;18.050;2022-11-18T15:46:21;1.60;99.90
22081;DHT22;11207;59.512;18.050;2022-11-18T15:48:49;1.60;99.90
22081;DHT22;11207;59.512;18.050;2022-11-18T15:51:15;1.60;99.90
22081;DHT22;11207;59.512;18.050;2022-11-18T15:53:41;1.70;99.90
22081;DHT22;11207;59.512;18.050;2022-11-18T15:56:25;1.60;99.90
22081;DHT22;11207;59.512;18.050;2022-11-18T15:59:03;1.60;99.90
22081;DHT22;11207;59.512;18.050;2022-11-18T16:01:43;1.60;99.90
22081;DHT22;11207;59.512;18.050;2022-11-18T16:04:12;1.70;99.90
22081;DHT22;11207;59.512;18.050;2022-11-18T16:07:09;1.60;99.90
22081;DHT22;11207;59.512;18.050;2022-11-18T16:09:59;1.50;99.90
22081;DHT22;11207;59.512;18.050;2022-11-18T16:12:43;1.60;99.90
22081;DHT22;11207;59.512;18.050;2022-11-18T16:15:13;1.60;99.90
22081;DHT22;11207;59.512;18.050;2022-11-18T16:17:58;1.60;99.90
22081;DHT22;11207;59.512;18.050;2022-11-18T16:20:24;1.60;99.90
22081;DHT22;11207;59.512;18.050;2022-11-18T16:22:50;1.60;99.90
22081;DHT22;11207;59.512;18.050;2022-11-18T16:25:18;1.60;99.90
22081;DHT22;11207;59.512;18.050;2022-11-18T16:27:44;1.60;99.90
22081;DHT22;11207;59.512;18.050;2022-11-18T16:30:10;1.60;99.90
22081;DHT22;11207;59.512;18.050;2022-11-18T16:32:56;1.60;99.90
22081;DHT22;11207;59.512;18.050;2022-11-18T16:35:21;1.60;99.90
22081;DHT22;11207;59.512;18.050;2022-11-18T16:37:47;1.60;99.90
22081;DHT22;11207;59.512;18.050;2022-11-18T16:40:13;1.60;99.90
22081;DHT22;11207;59.512;18.050;2022-11-18T16:42:38;1.60;99.90
22081;DHT22;11207;59.512;18.050;2022-11-18T16:45:04;1.60;99.90
22081;DHT22;11207;59.512;18.050;2022-11-18T16:47:30;1.60;99.90
22081;DHT22;11207;59.512;18.050;2022-11-18T16:49:56;1.60;99.90
22081;DHT22;11207;59.512;18.050;2022-11-18T16:52:21;1.60;99.90
22081;DHT22;11207;59.512;18.050;2022-11-18T16:54:47;1.60;99.90
22081;DHT22;11207;59.512;18.050;2022-11-18T16:57:13;1.60;99.90
22081;DHT22;11207;59.512;18.050;2022-11-18T16:59:41;1.80;99.90
22081;DHT22;11207;59.512;18.050;2022-11-18T17:02:10;1.60;99.90
22081;DHT22;11207;59.512;18.050;2022-11-18T17:04:36;1.60;99.90
22081;DHT22;11207;59.512;18.050;2022-11-18T17:07:03;1.60;99.90
22081;DHT22;11207;59.512;18.050;2022-11-18T17:09:29;1.60;99.90
22081;DHT22;11207;59.512;18.050;2022-11-18T17:11:56;1.70;99.90
22081;DHT22;11207;59.512;18.050;2022-11-18T17:14:23;1.60;99.90
22081;DHT22;11207;59.512;18.050;2022-11-18T17:16:50;1.60;99.90
22081;DHT22;11207;59.512;18.050;2022-11-18T17:19:18;1.60;99.90
22081;DHT22;11207;59.512;18.050;2022-11-18T17:21:44;1.60;99.90
22081;DHT22;11207;59.512;18.050;2022-11-18T17:24:13;1.60;99.90
22081;DHT22;11207;59.512;18.050;2022-11-18T17:26:40;1.60;99.90
22081;DHT22;11207;59.512;18.050;2022-11-18T17:29:06;1.60;99.90
22081;DHT22;11207;59.512;18.050;2022-11-18T17:31:33;1.60;99.90
22081;DHT22;11207;59.512;18.050;2022-11-18T17:33:58;1.50;99.90
22081;DHT22;11207;59.512;18.050;2022-11-18T17:36:25;1.60;99.90
22081;DHT22;11207;59.512;18.050;2022-11-18T17:38:53;1.60;99.90
22081;DHT22;11207;59.512;18.050;2022-11-18T17:41:22;1.50;99.90